sensor_id;sensor_type;location;lat;lon;timestamp;P1;durP1;ratioP1;P2;durP2;ratioP2
61785;SDS011;47692;53.714;11.372;2024-02-28T00:00:20;21.50;;;8.55;;
61785;SDS011;47692;53.714;11.372;2024-02-28T00:02:45;25.02;;;9.95;;
61785;SDS011;47692;53.714;11.372;2024-02-28T00:05:11;20.33;;;8.85;;
61785;SDS011;47692;53.714;11.372;2024-02-28T00:07:36;19.40;;;8.02;;
61785;SDS011;47692;53.714;11.372;2024-02-28T00:10:01;21.17;;;7.68;;
61785;SDS011;47692;53.714;11.372;2024-02-28T00:12:27;21.83;;;8.60;;
61785;SDS011;47692;53.714;11.372;2024-02-28T00:14:52;19.13;;;8.23;;
61785;SDS011;47692;53.714;11.372;2024-02-28T00:17:18;20.60;;;9.10;;
61785;SDS011;47692;53.714;11.372;2024-02-28T00:19:43;22.48;;;8.52;;
61785;SDS011;47692;53.714;11.372;2024-02-28T00:22:09;18.50;;;7.78;;
61785;SDS011;47692;53.714;11.372;2024-02-28T00:24:34;22.95;;;9.18;;
61785;SDS011;47692;53.714;11.372;2024-02-28T00:26:59;19.83;;;8.38;;
61785;SDS011;47692;53.714;11.372;2024-02-28T00:29:25;21.52;;;8.32;;
61785;SDS011;47692;53.714;11.372;2024-02-28T00:31:51;19.55;;;8.57;;
61785;SDS011;47692;53.714;11.372;2024-02-28T00:34:16;22.08;;;8.48;;
61785;SDS011;47692;53.714;11.372;2024-02-28T00:36:42;18.98;;;7.68;;
61785;SDS011;47692;53.714;11.372;2024-02-28T00:39:07;18.75;;;8.30;;
61785;SDS011;47692;53.714;11.372;2024-02-28T00:41:33;21.88;;;8.52;;
61785;SDS011;47692;53.714;11.372;2024-02-28T00:43:58;15.95;;;7.68;;
61785;SDS011;47692;53.714;11.372;2024-02-28T00:46:23;17.63;;;7.25;;
61785;SDS011;47692;53.714;11.372;2024-02-28T00:48:49;16.08;;;6.78;;
61785;SDS011;47692;53.714;11.372;2024-02-28T00:51:14;16.17;;;7.25;;
61785;SDS011;47692;53.714;11.372;2024-02-28T00:53:40;16.05;;;6.20;;
61785;SDS011;47692;53.714;11.372;2024-02-28T00:56:09;13.77;;;6.75;;
61785;SDS011;47692;53.714;11.372;2024-02-28T00:58:34;12.60;;;6.18;;
61785;SDS011;47692;53.714;11.372;2024-02-28T01:00:59;15.02;;;6.78;;
61785;SDS011;47692;53.714;11.372;2024-02-28T01:03:25;12.65;;;6.20;;
61785;SDS011;47692;53.714;11.372;2024-02-28T01:05:50;16.15;;;7.35;;
61785;SDS011;47692;53.714;11.372;2024-02-28T01:08:16;15.27;;;7.03;;
61785;SDS011;47692;53.714;11.372;2024-02-28T01:10:45;12.48;;;5.80;;
61785;SDS011;47692;53.714;11.372;2024-02-28T01:13:10;11.27;;;5.40;;
61785;SDS011;47692;53.714;11.372;2024-02-28T01:15:36;11.90;;;6.38;;
61785;SDS011;47692;53.714;11.372;2024-02-28T01:18:01;13.75;;;6.43;;
61785;SDS011;47692;53.714;11.372;2024-02-28T01:20:27;14.98;;;6.45;;
61785;SDS011;47692;53.714;11.372;2024-02-28T01:22:52;15.15;;;6.22;;
61785;SDS011;47692;53.714;11.372;2024-02-28T01:25:18;15.70;;;6.57;;
61785;SDS011;47692;53.714;11.372;2024-02-28T01:27:43;14.27;;;6.22;;
61785;SDS011;47692;53.714;11.372;2024-02-28T01:30:09;13.68;;;6.88;;
61785;SDS011;47692;53.714;11.372;2024-02-28T01:32:35;13.35;;;5.75;;
61785;SDS011;47692;53.714;11.372;2024-02-28T01:35:01;13.98;;;6.35;;
61785;SDS011;47692;53.714;11.372;2024-02-28T01:37:28;12.95;;;6.50;;
61785;SDS011;47692;53.714;11.372;2024-02-28T01:39:53;11.45;;;5.70;;
61785;SDS011;47692;53.714;11.372;2024-02-28T01:42:19;12.00;;;5.97;;
61785;SDS011;47692;53.714;11.372;2024-02-28T01:44:44;13.13;;;5.50;;
61785;SDS011;47692;53.714;11.372;2024-02-28T01:47:11;14.10;;;5.85;;
61785;SDS011;47692;53.714;11.372;2024-02-28T01:49:37;16.10;;;6.43;;
61785;SDS011;47692;53.714;11.372;2024-02-28T01:52:03;13.95;;;6.90;;
61785;SDS011;47692;53.714;11.372;2024-02-28T01:54:29;15.77;;;5.80;;
61785;SDS011;47692;53.714;11.372;2024-02-28T01:56:56;15.02;;;6.28;;
61785;SDS011;47692;53.714;11.372;2024-02-28T01:59:22;12.85;;;5.38;;
61785;SDS011;47692;53.714;11.372;2024-02-28T02:01:50;15.63;;;6.15;;
61785;SDS011;47692;53.714;11.372;2024-02-28T02:04:15;10.93;;;5.40;;
61785;SDS011;47692;53.714;11.372;2024-02-28T02:06:42;10.95;;;4.90;;
61785;SDS011;47692;53.714;11.372;2024-02-28T02:09:08;10.65;;;5.32;;
61785;SDS011;47692;53.714;11.372;2024-02-28T02:11:34;12.07;;;5.43;;
61785;SDS011;47692;53.714;11.372;2024-02-28T02:14:00;10.13;;;4.85;;
61785;SDS011;47692;53.714;11.372;2024-02-28T02:16:25;10.20;;;4.90;;
61785;SDS011;47692;53.714;11.372;2024-02-28T02:18:51;11.20;;;4.80;;
61785;SDS011;47692;53.714;11.372;2024-02-28T02:21:20;10.27;;;5.35;;
61785;SDS011;47692;53.714;11.372;2024-02-28T02:26:14;11.25;;;4.78;;
61785;SDS011;47692;53.714;11.372;2024-02-28T02:28:39;11.75;;;5.30;;
61785;SDS011;47692;53.714;11.372;2024-02-28T02:31:05;13.35;;;5.80;;
61785;SDS011;47692;53.714;11.372;2024-02-28T02:33:30;9.82;;;4.68;;
61785;SDS011;47692;53.714;11.372;2024-02-28T02:35:55;13.55;;;5.63;;
61785;SDS011;47692;53.714;11.372;2024-02-28T02:38:21;12.15;;;5.10;;
61785;SDS011;47692;53.714;11.372;2024-02-28T02:40:50;14.98;;;6.22;;
61785;SDS011;47692;53.714;11.372;2024-02-28T02:43:15;11.43;;;4.60;;
61785;SDS011;47692;53.714;11.372;2024-02-28T02:45:41;11.18;;;5.28;;
61785;SDS011;47692;53.714;11.372;2024-02-28T02:48:06;12.35;;;5.13;;
61785;SDS011;47692;53.714;11.372;2024-02-28T02:50:32;10.32;;;4.57;;
61785;SDS011;47692;53.714;11.372;2024-02-28T02:52:57;11.77;;;5.13;;
61785;SDS011;47692;53.714;11.372;2024-02-28T02:55:22;9.18;;;4.70;;
61785;SDS011;47692;53.714;11.372;2024-02-28T02:57:48;11.40;;;4.80;;
61785;SDS011;47692;53.714;11.372;2024-02-28T03:00:13;9.90;;;4.93;;
61785;SDS011;47692;53.714;11.372;2024-02-28T03:02:38;9.85;;;4.90;;
61785;SDS011;47692;53.714;11.372;2024-02-28T03:05:05;11.05;;;4.63;;
61785;SDS011;47692;53.714;11.372;2024-02-28T03:07:30;7.80;;;4.18;;
61785;SDS011;47692;53.714;11.372;2024-02-28T03:09:56;12.18;;;5.28;;
61785;SDS011;47692;53.714;11.372;2024-02-28T03:12:21;10.30;;;4.90;;
61785;SDS011;47692;53.714;11.372;2024-02-28T03:14:47;10.65;;;5.32;;
61785;SDS011;47692;53.714;11.372;2024-02-28T03:17:13;10.77;;;4.97;;
61785;SDS011;47692;53.714;11.372;2024-02-28T03:19:40;9.52;;;4.38;;
61785;SDS011;47692;53.714;11.372;2024-02-28T03:22:06;10.95;;;5.32;;
61785;SDS011;47692;53.714;11.372;2024-02-28T03:24:31;9.88;;;4.85;;
61785;SDS011;47692;53.714;11.372;2024-02-28T03:26:59;9.73;;;4.65;;
61785;SDS011;47692;53.714;11.372;2024-02-28T03:29:25;10.98;;;4.57;;
61785;SDS011;47692;53.714;11.372;2024-02-28T03:31:50;10.43;;;4.70;;
61785;SDS011;47692;53.714;11.372;2024-02-28T03:34:15;9.43;;;4.35;;
61785;SDS011;47692;53.714;11.372;2024-02-28T03:36:41;11.57;;;5.43;;
61785;SDS011;47692;53.714;11.372;2024-02-28T03:39:06;11.30;;;4.85;;
61785;SDS011;47692;53.714;11.372;2024-02-28T03:41:31;10.00;;;5.00;;
61785;SDS011;47692;53.714;11.372;2024-02-28T03:43:56;10.48;;;4.97;;
61785;SDS011;47692;53.714;11.372;2024-02-28T03:46:22;10.02;;;4.57;;
61785;SDS011;47692;53.714;11.372;2024-02-28T03:48:47;11.05;;;4.53;;
61785;SDS011;47692;53.714;11.372;2024-02-28T03:51:12;10.98;;;4.72;;
61785;SDS011;47692;53.714;11.372;2024-02-28T03:53:38;11.40;;;5.10;;
61785;SDS011;47692;53.714;11.372;2024-02-28T03:56:05;10.38;;;5.18;;
61785;SDS011;47692;53.714;11.372;2024-02-28T03:58:30;13.98;;;5.75;;
61785;SDS011;47692;53.714;11.372;2024-02-28T04:00:56;13.13;;;5.90;;
61785;SDS011;47692;53.714;11.372;2024-02-28T04:03:21;13.60;;;6.45;;
61785;SDS011;47692;53.714;11.372;2024-02-28T04:05:46;12.98;;;5.82;;
61785;SDS011;47692;53.714;11.372;2024-02-28T04:08:12;15.25;;;6.70;;
61785;SDS011;47692;53.714;11.372;2024-02-28T04:10:37;16.30;;;7.22;;
61785;SDS011;47692;53.714;11.372;2024-02-28T04:13:02;16.30;;;6.90;;
61785;SDS011;47692;53.714;11.372;2024-02-28T04:15:30;18.58;;;8.32;;
61785;SDS011;47692;53.714;11.372;2024-02-28T04:17:55;21.23;;;8.70;;
61785;SDS011;47692;53.714;11.372;2024-02-28T04:20:21;20.67;;;7.63;;
61785;SDS011;47692;53.714;11.372;2024-02-28T04:22:46;17.85;;;8.00;;
61785;SDS011;47692;53.714;11.372;2024-02-28T04:25:12;21.50;;;7.85;;
61785;SDS011;47692;53.714;11.372;2024-02-28T04:27:37;18.60;;;7.40;;
61785;SDS011;47692;53.714;11.372;2024-02-28T04:30:03;20.35;;;8.48;;
61785;SDS011;47692;53.714;11.372;2024-02-28T04:32:32;20.33;;;8.50;;
61785;SDS011;47692;53.714;11.372;2024-02-28T04:34:57;19.55;;;8.63;;
61785;SDS011;47692;53.714;11.372;2024-02-28T04:37:23;18.55;;;8.68;;
61785;SDS011;47692;53.714;11.372;2024-02-28T04:39:48;19.80;;;8.15;;
61785;SDS011;47692;53.714;11.372;2024-02-28T04:42:14;21.27;;;9.32;;
61785;SDS011;47692;53.714;11.372;2024-02-28T04:44:41;19.48;;;8.23;;
61785;SDS011;47692;53.714;11.372;2024-02-28T04:47:06;19.55;;;8.20;;
61785;SDS011;47692;53.714;11.372;2024-02-28T04:49:32;19.27;;;8.30;;
61785;SDS011;47692;53.714;11.372;2024-02-28T04:51:57;18.95;;;8.57;;
61785;SDS011;47692;53.714;11.372;2024-02-28T04:54:23;18.83;;;7.80;;
61785;SDS011;47692;53.714;11.372;2024-02-28T04:56:49;16.42;;;8.10;;
61785;SDS011;47692;53.714;11.372;2024-02-28T04:59:16;18.58;;;8.55;;
61785;SDS011;47692;53.714;11.372;2024-02-28T05:01:41;19.33;;;8.57;;
61785;SDS011;47692;53.714;11.372;2024-02-28T05:04:08;18.27;;;7.80;;
61785;SDS011;47692;53.714;11.372;2024-02-28T05:06:34;19.23;;;8.48;;
61785;SDS011;47692;53.714;11.372;2024-02-28T05:09:00;16.75;;;7.63;;
61785;SDS011;47692;53.714;11.372;2024-02-28T05:11:25;16.15;;;7.72;;
61785;SDS011;47692;53.714;11.372;2024-02-28T05:13:50;18.02;;;8.95;;
61785;SDS011;47692;53.714;11.372;2024-02-28T05:16:16;19.13;;;8.15;;
61785;SDS011;47692;53.714;11.372;2024-02-28T05:18:43;18.88;;;8.32;;
61785;SDS011;47692;53.714;11.372;2024-02-28T05:21:09;17.10;;;7.88;;
61785;SDS011;47692;53.714;11.372;2024-02-28T05:23:35;18.73;;;8.95;;
61785;SDS011;47692;53.714;11.372;2024-02-28T05:26:01;20.85;;;8.93;;
61785;SDS011;47692;53.714;11.372;2024-02-28T05:28:29;21.65;;;10.55;;
61785;SDS011;47692;53.714;11.372;2024-02-28T05:30:55;24.27;;;11.00;;
61785;SDS011;47692;53.714;11.372;2024-02-28T05:33:21;20.10;;;9.02;;
61785;SDS011;47692;53.714;11.372;2024-02-28T05:35:46;20.08;;;8.75;;
61785;SDS011;47692;53.714;11.372;2024-02-28T05:38:11;19.98;;;9.00;;
61785;SDS011;47692;53.714;11.372;2024-02-28T05:40:37;19.80;;;8.93;;
61785;SDS011;47692;53.714;11.372;2024-02-28T05:43:02;22.20;;;9.23;;
61785;SDS011;47692;53.714;11.372;2024-02-28T05:45:29;27.70;;;11.60;;
61785;SDS011;47692;53.714;11.372;2024-02-28T05:47:54;24.73;;;11.43;;
61785;SDS011;47692;53.714;11.372;2024-02-28T05:50:20;19.92;;;9.13;;
61785;SDS011;47692;53.714;11.372;2024-02-28T05:52:45;20.65;;;7.85;;
61785;SDS011;47692;53.714;11.372;2024-02-28T05:55:10;20.40;;;9.18;;
61785;SDS011;47692;53.714;11.372;2024-02-28T05:57:36;19.63;;;8.90;;
61785;SDS011;47692;53.714;11.372;2024-02-28T06:00:01;19.90;;;9.07;;
61785;SDS011;47692;53.714;11.372;2024-02-28T06:02:33;19.83;;;8.77;;
61785;SDS011;47692;53.714;11.372;2024-02-28T06:04:59;21.85;;;9.02;;
61785;SDS011;47692;53.714;11.372;2024-02-28T06:07:24;22.42;;;11.10;;
61785;SDS011;47692;53.714;11.372;2024-02-28T06:09:49;23.75;;;9.73;;
61785;SDS011;47692;53.714;11.372;2024-02-28T06:12:15;19.83;;;10.20;;
61785;SDS011;47692;53.714;11.372;2024-02-28T06:14:40;20.40;;;9.50;;
61785;SDS011;47692;53.714;11.372;2024-02-28T06:17:05;21.58;;;9.02;;
61785;SDS011;47692;53.714;11.372;2024-02-28T06:19:31;18.30;;;8.65;;
61785;SDS011;47692;53.714;11.372;2024-02-28T06:21:56;22.60;;;9.77;;
61785;SDS011;47692;53.714;11.372;2024-02-28T06:24:21;21.48;;;9.65;;
61785;SDS011;47692;53.714;11.372;2024-02-28T06:26:47;26.98;;;11.15;;
61785;SDS011;47692;53.714;11.372;2024-02-28T06:29:12;23.02;;;9.23;;
61785;SDS011;47692;53.714;11.372;2024-02-28T06:31:37;21.15;;;9.98;;
61785;SDS011;47692;53.714;11.372;2024-02-28T06:34:03;23.88;;;10.98;;
61785;SDS011;47692;53.714;11.372;2024-02-28T06:36:28;23.95;;;10.77;;
61785;SDS011;47692;53.714;11.372;2024-02-28T06:38:54;22.38;;;10.10;;
61785;SDS011;47692;53.714;11.372;2024-02-28T06:41:19;21.35;;;10.13;;
61785;SDS011;47692;53.714;11.372;2024-02-28T06:43:44;21.75;;;10.30;;
61785;SDS011;47692;53.714;11.372;2024-02-28T06:46:10;22.38;;;9.80;;
61785;SDS011;47692;53.714;11.372;2024-02-28T06:48:36;22.85;;;10.48;;
61785;SDS011;47692;53.714;11.372;2024-02-28T06:51:01;23.15;;;10.20;;
61785;SDS011;47692;53.714;11.372;2024-02-28T06:53:27;21.73;;;9.85;;
61785;SDS011;47692;53.714;11.372;2024-02-28T06:55:52;22.13;;;9.65;;
61785;SDS011;47692;53.714;11.372;2024-02-28T06:58:17;20.52;;;10.43;;
61785;SDS011;47692;53.714;11.372;2024-02-28T07:00:43;23.25;;;10.15;;
61785;SDS011;47692;53.714;11.372;2024-02-28T07:03:08;23.33;;;11.07;;
61785;SDS011;47692;53.714;11.372;2024-02-28T07:05:33;22.95;;;9.90;;
61785;SDS011;47692;53.714;11.372;2024-02-28T07:07:59;22.70;;;9.80;;
61785;SDS011;47692;53.714;11.372;2024-02-28T07:10:25;22.83;;;10.57;;
61785;SDS011;47692;53.714;11.372;2024-02-28T07:12:51;24.90;;;10.38;;
61785;SDS011;47692;53.714;11.372;2024-02-28T07:15:16;25.33;;;10.18;;
61785;SDS011;47692;53.714;11.372;2024-02-28T07:17:45;23.42;;;10.98;;
61785;SDS011;47692;53.714;11.372;2024-02-28T07:20:11;24.70;;;12.35;;
61785;SDS011;47692;53.714;11.372;2024-02-28T07:22:37;25.35;;;10.57;;
61785;SDS011;47692;53.714;11.372;2024-02-28T07:25:02;21.75;;;9.98;;
61785;SDS011;47692;53.714;11.372;2024-02-28T07:27:29;22.10;;;10.38;;
61785;SDS011;47692;53.714;11.372;2024-02-28T07:29:54;24.00;;;11.82;;
61785;SDS011;47692;53.714;11.372;2024-02-28T07:32:20;22.42;;;10.60;;
61785;SDS011;47692;53.714;11.372;2024-02-28T07:34:45;24.63;;;11.27;;
61785;SDS011;47692;53.714;11.372;2024-02-28T07:37:10;25.00;;;11.45;;
61785;SDS011;47692;53.714;11.372;2024-02-28T07:39:37;21.90;;;10.73;;
61785;SDS011;47692;53.714;11.372;2024-02-28T07:42:02;22.13;;;10.55;;
61785;SDS011;47692;53.714;11.372;2024-02-28T07:44:28;21.77;;;11.13;;
61785;SDS011;47692;53.714;11.372;2024-02-28T07:46:55;26.67;;;12.30;;
61785;SDS011;47692;53.714;11.372;2024-02-28T07:49:22;28.05;;;11.30;;
61785;SDS011;47692;53.714;11.372;2024-02-28T07:51:47;23.30;;;10.35;;
61785;SDS011;47692;53.714;11.372;2024-02-28T07:54:13;24.33;;;11.40;;
61785;SDS011;47692;53.714;11.372;2024-02-28T07:56:38;23.50;;;10.57;;
61785;SDS011;47692;53.714;11.372;2024-02-28T07:59:03;21.65;;;10.63;;
61785;SDS011;47692;53.714;11.372;2024-02-28T08:01:29;25.80;;;11.80;;
61785;SDS011;47692;53.714;11.372;2024-02-28T08:03:55;26.13;;;10.70;;
61785;SDS011;47692;53.714;11.372;2024-02-28T08:06:21;26.08;;;11.13;;
61785;SDS011;47692;53.714;11.372;2024-02-28T08:08:47;22.25;;;11.20;;
61785;SDS011;47692;53.714;11.372;2024-02-28T08:11:12;26.30;;;11.77;;
61785;SDS011;47692;53.714;11.372;2024-02-28T08:13:38;23.13;;;10.57;;
61785;SDS011;47692;53.714;11.372;2024-02-28T08:16:03;26.67;;;11.32;;
61785;SDS011;47692;53.714;11.372;2024-02-28T08:18:29;22.95;;;10.60;;
61785;SDS011;47692;53.714;11.372;2024-02-28T08:20:54;23.63;;;11.10;;
61785;SDS011;47692;53.714;11.372;2024-02-28T08:23:22;23.23;;;10.00;;
61785;SDS011;47692;53.714;11.372;2024-02-28T08:25:48;24.65;;;9.93;;
61785;SDS011;47692;53.714;11.372;2024-02-28T08:28:14;23.00;;;10.57;;
61785;SDS011;47692;53.714;11.372;2024-02-28T08:30:39;24.13;;;10.63;;
61785;SDS011;47692;53.714;11.372;2024-02-28T08:33:06;26.27;;;11.25;;
61785;SDS011;47692;53.714;11.372;2024-02-28T08:35:33;23.92;;;9.80;;
61785;SDS011;47692;53.714;11.372;2024-02-28T08:37:58;22.70;;;10.05;;
61785;SDS011;47692;53.714;11.372;2024-02-28T08:40:23;26.90;;;11.65;;
61785;SDS011;47692;53.714;11.372;2024-02-28T08:42:48;25.33;;;11.25;;
61785;SDS011;47692;53.714;11.372;2024-02-28T08:45:17;23.08;;;10.43;;
61785;SDS011;47692;53.714;11.372;2024-02-28T08:47:43;25.55;;;10.98;;
61785;SDS011;47692;53.714;11.372;2024-02-28T08:50:09;24.65;;;10.82;;
61785;SDS011;47692;53.714;11.372;2024-02-28T08:52:35;24.88;;;10.90;;
61785;SDS011;47692;53.714;11.372;2024-02-28T08:55:00;26.48;;;11.38;;
61785;SDS011;47692;53.714;11.372;2024-02-28T08:57:26;20.73;;;10.50;;
61785;SDS011;47692;53.714;11.372;2024-02-28T08:59:51;22.50;;;10.85;;
61785;SDS011;47692;53.714;11.372;2024-02-28T09:02:16;22.90;;;11.07;;
61785;SDS011;47692;53.714;11.372;2024-02-28T09:04:42;25.98;;;11.55;;
61785;SDS011;47692;53.714;11.372;2024-02-28T09:07:07;24.15;;;11.40;;
61785;SDS011;47692;53.714;11.372;2024-02-28T09:09:32;26.08;;;11.43;;
61785;SDS011;47692;53.714;11.372;2024-02-28T09:12:02;26.75;;;10.85;;
61785;SDS011;47692;53.714;11.372;2024-02-28T09:14:28;26.63;;;10.98;;
61785;SDS011;47692;53.714;11.372;2024-02-28T09:16:53;25.05;;;10.65;;
61785;SDS011;47692;53.714;11.372;2024-02-28T09:19:21;22.95;;;11.02;;
61785;SDS011;47692;53.714;11.372;2024-02-28T09:21:46;20.77;;;10.40;;
61785;SDS011;47692;53.714;11.372;2024-02-28T09:24:13;22.92;;;11.00;;
61785;SDS011;47692;53.714;11.372;2024-02-28T09:26:38;20.52;;;9.85;;
61785;SDS011;47692;53.714;11.372;2024-02-28T09:29:04;25.40;;;10.77;;
61785;SDS011;47692;53.714;11.372;2024-02-28T09:31:29;21.15;;;10.18;;
61785;SDS011;47692;53.714;11.372;2024-02-28T09:33:55;26.00;;;11.07;;
61785;SDS011;47692;53.714;11.372;2024-02-28T09:39:37;22.88;;;10.27;;
61785;SDS011;47692;53.714;11.372;2024-02-28T09:42:03;23.80;;;10.43;;
61785;SDS011;47692;53.714;11.372;2024-02-28T09:44:31;23.88;;;10.15;;
61785;SDS011;47692;53.714;11.372;2024-02-28T09:46:56;21.33;;;9.85;;
61785;SDS011;47692;53.714;11.372;2024-02-28T09:49:22;21.65;;;10.52;;
61785;SDS011;47692;53.714;11.372;2024-02-28T09:51:51;21.35;;;9.57;;
61785;SDS011;47692;53.714;11.372;2024-02-28T09:54:17;28.55;;;9.75;;
61785;SDS011;47692;53.714;11.372;2024-02-28T09:56:43;24.60;;;10.20;;
61785;SDS011;47692;53.714;11.372;2024-02-28T09:59:09;23.05;;;10.93;;
61785;SDS011;47692;53.714;11.372;2024-02-28T10:01:37;23.50;;;10.38;;
61785;SDS011;47692;53.714;11.372;2024-02-28T10:04:08;23.33;;;11.00;;
61785;SDS011;47692;53.714;11.372;2024-02-28T10:06:36;21.58;;;10.85;;
61785;SDS011;47692;53.714;11.372;2024-02-28T10:09:01;21.60;;;10.05;;
61785;SDS011;47692;53.714;11.372;2024-02-28T10:11:26;25.17;;;10.75;;
61785;SDS011;47692;53.714;11.372;2024-02-28T10:13:52;19.80;;;9.52;;
61785;SDS011;47692;53.714;11.372;2024-02-28T10:16:20;25.23;;;10.65;;
61785;SDS011;47692;53.714;11.372;2024-02-28T10:18:45;20.67;;;10.43;;
61785;SDS011;47692;53.714;11.372;2024-02-28T10:21:11;21.75;;;10.40;;
61785;SDS011;47692;53.714;11.372;2024-02-28T10:26:09;19.98;;;9.63;;
61785;SDS011;47692;53.714;11.372;2024-02-28T10:28:36;20.10;;;10.38;;
61785;SDS011;47692;53.714;11.372;2024-02-28T10:31:05;23.42;;;10.88;;
61785;SDS011;47692;53.714;11.372;2024-02-28T10:33:31;22.42;;;10.50;;
61785;SDS011;47692;53.714;11.372;2024-02-28T10:35:58;22.52;;;10.65;;
61785;SDS011;47692;53.714;11.372;2024-02-28T10:38:24;20.95;;;9.73;;
61785;SDS011;47692;53.714;11.372;2024-02-28T10:40:51;21.33;;;10.80;;
61785;SDS011;47692;53.714;11.372;2024-02-28T10:43:18;20.65;;;10.52;;
61785;SDS011;47692;53.714;11.372;2024-02-28T10:45:44;19.80;;;10.38;;
61785;SDS011;47692;53.714;11.372;2024-02-28T10:48:11;22.15;;;10.30;;
61785;SDS011;47692;53.714;11.372;2024-02-28T10:50:39;22.88;;;10.63;;
61785;SDS011;47692;53.714;11.372;2024-02-28T10:53:04;21.33;;;11.13;;
61785;SDS011;47692;53.714;11.372;2024-02-28T10:55:41;22.33;;;11.10;;
61785;SDS011;47692;53.714;11.372;2024-02-28T10:58:09;22.80;;;9.98;;
61785;SDS011;47692;53.714;11.372;2024-02-28T11:00:38;20.10;;;10.18;;
61785;SDS011;47692;53.714;11.372;2024-02-28T11:03:12;19.02;;;9.95;;
61785;SDS011;47692;53.714;11.372;2024-02-28T11:05:41;21.88;;;10.75;;
61785;SDS011;47692;53.714;11.372;2024-02-28T11:08:08;22.40;;;10.25;;
61785;SDS011;47692;53.714;11.372;2024-02-28T11:10:35;23.02;;;11.43;;
61785;SDS011;47692;53.714;11.372;2024-02-28T11:13:00;22.33;;;11.00;;
61785;SDS011;47692;53.714;11.372;2024-02-28T11:15:25;20.25;;;10.98;;
61785;SDS011;47692;53.714;11.372;2024-02-28T11:17:54;21.15;;;10.70;;
61785;SDS011;47692;53.714;11.372;2024-02-28T11:20:19;19.58;;;9.65;;
61785;SDS011;47692;53.714;11.372;2024-02-28T11:22:47;22.58;;;11.05;;
61785;SDS011;47692;53.714;11.372;2024-02-28T11:25:12;23.30;;;10.90;;
61785;SDS011;47692;53.714;11.372;2024-02-28T11:27:48;22.20;;;11.13;;
61785;SDS011;47692;53.714;11.372;2024-02-28T11:30:14;21.48;;;10.48;;
61785;SDS011;47692;53.714;11.372;2024-02-28T11:32:40;24.83;;;11.07;;
61785;SDS011;47692;53.714;11.372;2024-02-28T11:35:06;24.42;;;11.70;;
61785;SDS011;47692;53.714;11.372;2024-02-28T11:37:31;27.33;;;12.32;;
61785;SDS011;47692;53.714;11.372;2024-02-28T11:39:57;25.95;;;12.18;;
61785;SDS011;47692;53.714;11.372;2024-02-28T11:42:23;28.42;;;12.32;;
61785;SDS011;47692;53.714;11.372;2024-02-28T11:44:55;28.10;;;12.88;;
61785;SDS011;47692;53.714;11.372;2024-02-28T11:47:22;27.27;;;12.82;;
61785;SDS011;47692;53.714;11.372;2024-02-28T11:49:48;28.65;;;13.23;;
61785;SDS011;47692;53.714;11.372;2024-02-28T11:52:14;23.35;;;11.30;;
61785;SDS011;47692;53.714;11.372;2024-02-28T11:54:39;25.35;;;12.60;;
61785;SDS011;47692;53.714;11.372;2024-02-28T11:57:04;27.10;;;12.57;;
61785;SDS011;47692;53.714;11.372;2024-02-28T11:59:32;28.48;;;12.50;;
61785;SDS011;47692;53.714;11.372;2024-02-28T12:01:57;26.85;;;12.88;;
61785;SDS011;47692;53.714;11.372;2024-02-28T12:04:25;27.90;;;12.95;;
61785;SDS011;47692;53.714;11.372;2024-02-28T12:06:51;23.13;;;11.68;;
61785;SDS011;47692;53.714;11.372;2024-02-28T12:09:16;23.33;;;12.18;;
61785;SDS011;47692;53.714;11.372;2024-02-28T12:11:43;22.92;;;11.93;;
61785;SDS011;47692;53.714;11.372;2024-02-28T12:14:09;25.23;;;12.30;;
61785;SDS011;47692;53.714;11.372;2024-02-28T12:16:38;24.65;;;11.27;;
61785;SDS011;47692;53.714;11.372;2024-02-28T12:19:08;25.50;;;11.73;;
61785;SDS011;47692;53.714;11.372;2024-02-28T12:21:34;23.23;;;11.48;;
61785;SDS011;47692;53.714;11.372;2024-02-28T12:24:01;23.70;;;11.55;;
61785;SDS011;47692;53.714;11.372;2024-02-28T12:26:26;21.00;;;10.95;;
61785;SDS011;47692;53.714;11.372;2024-02-28T12:28:52;21.92;;;11.43;;
61785;SDS011;47692;53.714;11.372;2024-02-28T12:31:17;23.52;;;11.40;;
61785;SDS011;47692;53.714;11.372;2024-02-28T12:33:43;25.13;;;12.38;;
61785;SDS011;47692;53.714;11.372;2024-02-28T12:36:09;24.80;;;11.70;;
61785;SDS011;47692;53.714;11.372;2024-02-28T12:38:35;26.40;;;12.25;;
61785;SDS011;47692;53.714;11.372;2024-02-28T12:41:00;21.23;;;10.93;;
61785;SDS011;47692;53.714;11.372;2024-02-28T12:43:26;24.85;;;11.05;;
61785;SDS011;47692;53.714;11.372;2024-02-28T12:45:51;22.55;;;10.00;;
61785;SDS011;47692;53.714;11.372;2024-02-28T12:48:18;21.55;;;10.70;;
61785;SDS011;47692;53.714;11.372;2024-02-28T12:50:43;23.85;;;11.23;;
61785;SDS011;47692;53.714;11.372;2024-02-28T12:53:09;21.15;;;11.13;;
61785;SDS011;47692;53.714;11.372;2024-02-28T12:55:34;22.13;;;11.13;;
61785;SDS011;47692;53.714;11.372;2024-02-28T12:57:59;22.33;;;11.20;;
61785;SDS011;47692;53.714;11.372;2024-02-28T13:00:29;21.52;;;11.60;;
61785;SDS011;47692;53.714;11.372;2024-02-28T13:02:54;21.10;;;11.43;;
61785;SDS011;47692;53.714;11.372;2024-02-28T13:05:20;20.48;;;10.20;;
61785;SDS011;47692;53.714;11.372;2024-02-28T13:07:45;22.13;;;11.50;;
61785;SDS011;47692;53.714;11.372;2024-02-28T13:10:10;21.65;;;10.82;;
61785;SDS011;47692;53.714;11.372;2024-02-28T13:12:37;20.85;;;9.70;;
61785;SDS011;47692;53.714;11.372;2024-02-28T13:15:03;18.30;;;9.75;;
61785;SDS011;47692;53.714;11.372;2024-02-28T13:17:30;20.15;;;10.13;;
61785;SDS011;47692;53.714;11.372;2024-02-28T13:19:55;24.75;;;12.38;;
61785;SDS011;47692;53.714;11.372;2024-02-28T13:22:20;20.02;;;10.07;;
61785;SDS011;47692;53.714;11.372;2024-02-28T13:24:46;23.02;;;11.25;;
61785;SDS011;47692;53.714;11.372;2024-02-28T13:27:11;20.75;;;10.43;;
61785;SDS011;47692;53.714;11.372;2024-02-28T13:29:36;20.65;;;11.13;;
61785;SDS011;47692;53.714;11.372;2024-02-28T13:32:01;22.00;;;11.40;;
61785;SDS011;47692;53.714;11.372;2024-02-28T13:34:28;21.20;;;10.25;;
61785;SDS011;47692;53.714;11.372;2024-02-28T13:36:54;17.55;;;10.05;;
61785;SDS011;47692;53.714;11.372;2024-02-28T13:39:20;19.00;;;9.82;;
61785;SDS011;47692;53.714;11.372;2024-02-28T13:41:45;20.20;;;10.13;;
61785;SDS011;47692;53.714;11.372;2024-02-28T13:44:15;22.27;;;10.05;;
61785;SDS011;47692;53.714;11.372;2024-02-28T13:46:40;18.50;;;10.20;;
61785;SDS011;47692;53.714;11.372;2024-02-28T13:49:06;21.00;;;10.57;;
61785;SDS011;47692;53.714;11.372;2024-02-28T13:51:32;22.95;;;9.90;;
61785;SDS011;47692;53.714;11.372;2024-02-28T13:53:58;18.83;;;9.68;;
61785;SDS011;47692;53.714;11.372;2024-02-28T13:56:23;21.50;;;9.75;;
61785;SDS011;47692;53.714;11.372;2024-02-28T13:58:49;19.38;;;9.77;;
61785;SDS011;47692;53.714;11.372;2024-02-28T14:01:14;21.42;;;10.07;;
61785;SDS011;47692;53.714;11.372;2024-02-28T14:03:39;18.70;;;9.00;;
61785;SDS011;47692;53.714;11.372;2024-02-28T14:06:05;18.63;;;9.38;;
61785;SDS011;47692;53.714;11.372;2024-02-28T14:08:30;20.45;;;10.07;;
61785;SDS011;47692;53.714;11.372;2024-02-28T14:10:56;19.17;;;9.60;;
61785;SDS011;47692;53.714;11.372;2024-02-28T14:13:23;19.52;;;9.30;;
61785;SDS011;47692;53.714;11.372;2024-02-28T14:15:52;18.83;;;8.95;;